Time;durP1;ratioP1;P1;durP2;ratioP2;P2;SDS_P1;SDS_P2;PMS_P1;PMS_P2;Temp;Humidity;BMP_temperature;BMP_pressure;BME280_temperature;BME280_humidity;BME280_pressure;Samples;Min_cycle;Max_cycle;Signal;HPM_P1;HPM_P2
2021/03/14 00:00:06;;;;;;;0.40;0.30;;;;;;;6.38;76.75;98813.69;5053114;28;20434;-66
2021/03/14 00:02:32;;;;;;;0.53;0.53;;;;;;;6.36;76.58;98805.13;5053143;28;20491;-66
2021/03/14 00:04:57;;;;;;;0.40;0.30;;;;;;;6.41;76.46;98815.72;5053092;28;20446;-66
2021/03/14 00:07:24;;;;;;;0.50;0.50;;;;;;;6.41;77.73;98815.72;5053397;28;20469;-66
2021/03/14 00:09:50;;;;;;;0.40;0.30;;;;;;;6.43;76.59;98818.91;5057202;28;20441;-66
2021/03/14 00:12:16;;;;;;;0.47;0.40;;;;;;;6.44;76.40;98817.78;5057198;28;20470;-66
2021/03/14 00:14:42;;;;;;;0.40;0.20;;;;;;;6.45;75.65;98816.66;5057182;28;20438;-66
2021/03/14 00:17:08;;;;;;;0.43;0.30;;;;;;;6.45;76.63;98817.47;5056918;28;21007;-66
2021/03/14 00:19:35;;;;;;;1.63;0.43;;;;;;;6.41;76.71;98826.47;5057039;28;20445;-66
2021/03/14 00:22:01;;;;;;;0.60;0.53;;;;;;;6.40;76.31;98831.06;5057051;28;20442;-66
2021/03/14 00:24:27;;;;;;;0.40;0.30;;;;;;;6.37;76.33;98834.38;5056989;28;20869;-66
2021/03/14 00:26:53;;;;;;;0.97;0.40;;;;;;;6.41;76.00;98829.16;5056919;28;20469;-66
2021/03/14 00:29:19;;;;;;;0.50;0.40;;;;;;;6.35;76.86;98835.81;5056943;28;20438;-66
2021/03/14 00:31:45;;;;;;;1.40;0.47;;;;;;;6.34;75.74;98834.25;5056506;28;20983;-65
2021/03/14 00:34:11;;;;;;;0.60;0.40;;;;;;;6.34;76.34;98818.91;5056710;28;20490;-66
2021/03/14 00:36:37;;;;;;;0.40;0.20;;;;;;;6.28;76.03;98820.94;5056624;28;20493;-65
2021/03/14 00:39:03;;;;;;;0.40;0.30;;;;;;;6.29;77.61;98819.84;5056806;28;20472;-66
2021/03/14 00:41:30;;;;;;;0.40;0.23;;;;;;;6.32;76.79;98838.03;5056624;28;20446;-66
2021/03/14 00:43:57;;;;;;;0.60;0.60;;;;;;;6.36;76.85;98824.75;5056551;28;20441;-66
2021/03/14 00:46:23;;;;;;;0.40;0.30;;;;;;;6.37;76.45;98826.31;5056481;28;20462;-67
2021/03/14 00:48:48;;;;;;;0.47;0.37;;;;;;;6.39;76.21;98837.56;5056512;28;20791;-66
2021/03/14 00:51:14;;;;;;;1.43;0.40;;;;;;;6.37;75.98;98833.59;5056448;28;20815;-67
2021/03/14 00:53:40;;;;;;;0.40;0.30;;;;;;;6.29;75.02;98833.28;5056451;28;20853;-66
2021/03/14 00:56:06;;;;;;;0.60;0.50;;;;;;;6.38;76.93;98838.69;5056266;28;21108;-65
2021/03/14 00:58:33;;;;;;;0.50;0.43;;;;;;;6.37;75.60;98831.69;5056331;28;20438;-66
2021/03/14 01:00:59;;;;;;;0.40;0.30;;;;;;;6.36;75.34;98832.81;5056363;28;20446;-66
2021/03/14 01:03:25;;;;;;;0.40;0.20;;;;;;;6.31;77.14;98828.38;5056245;28;20445;-66
2021/03/14 01:05:51;;;;;;;0.40;0.20;;;;;;;6.39;75.60;98824.13;5056068;28;20488;-66
2021/03/14 01:08:18;;;;;;;0.40;0.30;;;;;;;6.37;75.43;98833.59;5056108;28;20449;-66
2021/03/14 01:10:44;;;;;;;0.40;0.30;;;;;;;6.40;75.32;98820.31;5056190;28;20445;-66
2021/03/14 01:13:10;;;;;;;0.60;0.40;;;;;;;6.35;75.80;98825.84;5056070;28;20438;-66
2021/03/14 01:15:37;;;;;;;0.40;0.30;;;;;;;6.38;75.50;98824.44;5055854;28;20603;-66
2021/03/14 01:18:04;;;;;;;0.53;0.47;;;;;;;6.35;77.12;98825.06;5055916;28;20457;-66
2021/03/14 01:20:30;;;;;;;0.40;0.30;;;;;;;6.23;78.75;98837.22;5054809;28;20453;-66
2021/03/14 01:22:56;;;;;;;0.40;0.30;;;;;;;6.16;79.54;98834.22;5055576;28;20488;-66
2021/03/14 01:25:22;;;;;;;0.50;0.50;;;;;;;6.03;79.85;98819.03;5055833;28;20446;-66
2021/03/14 01:27:48;;;;;;;0.50;0.40;;;;;;;6.00;81.53;98825.81;5055437;28;20458;-65
2021/03/14 01:30:16;;;;;;;1.03;0.70;;;;;;;5.96;80.29;98813.31;5055471;28;20449;-66
2021/03/14 01:32:43;;;;;;;0.40;0.27;;;;;;;5.90;81.87;98828.00;5055442;28;20813;-67
2021/03/14 01:35:10;;;;;;;0.73;0.73;;;;;;;5.87;80.80;98828.59;5055734;28;20442;-66
2021/03/14 01:37:38;;;;;;;0.43;0.33;;;;;;;5.91;80.10;98827.66;5055175;28;20493;-65
2021/03/14 01:40:05;;;;;;;0.40;0.30;;;;;;;5.95;80.29;98825.19;5055558;28;20442;-66
2021/03/14 01:42:34;;;;;;;195.97;2.37;;;;;;;5.99;78.58;98818.06;5060093;28;20443;-66
2021/03/14 01:45:02;;;;;;;0.40;0.30;;;;;;;6.03;78.81;98810.97;5055629;28;20438;-65
2021/03/14 01:47:33;;;;;;;0.40;0.30;;;;;;;6.12;77.83;98819.03;5055430;28;20466;-65
2021/03/14 01:50:01;;;;;;;0.40;0.30;;;;;;;6.17;77.16;98819.69;5055439;28;20437;-65
2021/03/14 01:52:27;;;;;;;0.40;0.30;;;;;;;6.23;76.96;98818.41;5055387;28;20442;-66
2021/03/14 01:54:53;;;;;;;0.40;0.40;;;;;;;6.26;76.91;98828.53;5055293;28;20449;-66
2021/03/14 01:57:19;;;;;;;0.40;0.30;;;;;;;6.31;76.21;98825.69;5055140;28;20493;-66
2021/03/14 01:59:46;;;;;;;0.93;0.93;;;;;;;6.35;75.66;98825.84;5054912;28;20442;-66
2021/03/14 02:02:12;;;;;;;1.03;0.40;;;;;;;6.39;76.51;98823.31;5055216;28;20445;-66
2021/03/14 02:04:38;;;;;;;0.70;0.60;;;;;;;6.40;76.34;98831.06;5055077;28;20450;-66
2021/03/14 02:07:04;;;;;;;2.10;0.50;;;;;;;6.39;76.06;98823.31;5054684;28;20473;-66
2021/03/14 02:09:30;;;;;;;1.53;0.80;;;;;;;6.39;76.68;98834.88;5055078;28;20442;-66
2021/03/14 02:11:59;;;;;;;1.17;0.70;;;;;;;6.42;76.64;98822.69;5054952;28;20445;-66
2021/03/14 02:14:26;;;;;;;0.50;0.40;;;;;;;6.43;77.17;98837.72;5054927;28;20808;-66
2021/03/14 02:16:55;;;;;;;0.40;0.30;;;;;;;6.42;76.27;98828.88;5054750;28;20508;-65
2021/03/14 02:19:27;;;;;;;0.40;0.30;;;;;;;6.48;76.88;98840.25;5055480;28;20450;-66
2021/03/14 02:21:53;;;;;;;0.40;0.30;;;;;;;6.40;78.31;98838.34;5055779;28;20435;-66
2021/03/14 02:24:25;;;;;;;0.63;0.40;;;;;;;6.38;77.99;98862.88;5054425;28;20449;-66
2021/03/14 02:27:02;;;;;;;0.50;0.30;;;;;;;6.24;79.80;98863.03;5054685;28;20454;-65
2021/03/14 02:29:28;;;;;;;0.40;0.37;;;;;;;6.13;82.51;98859.03;5054086;28;20455;-65
2021/03/14 02:31:55;;;;;;;0.40;0.30;;;;;;;6.00;84.51;98873.41;5054150;28;20940;-65
2021/03/14 02:34:26;;;;;;;0.40;0.30;;;;;;;5.83;86.15;98882.97;5054231;28;20947;-65
2021/03/14 02:36:53;;;;;;;0.40;0.30;;;;;;;5.70;88.55;98883.88;5054073;28;20994;-66
2021/03/14 02:39:23;;;;;;;0.40;0.30;;;;;;;5.56;90.17;98883.97;5054421;28;20450;-66
2021/03/14 02:41:50;;;;;;;0.80;0.70;;;;;;;5.43;91.37;98882.16;5054367;28;20453;-65
2021/03/14 02:44:18;;;;;;;0.77;0.50;;;;;;;5.38;91.98;98874.25;5054336;28;20434;-66
2021/03/14 02:46:45;;;;;;;0.50;0.37;;;;;;;5.28;92.68;98874.53;5054208;28;20454;-65
2021/03/14 02:49:12;;;;;;;0.50;0.40;;;;;;;5.27;93.49;98876.44;5054231;28;20473;-65
2021/03/14 02:51:39;;;;;;;0.40;0.30;;;;;;;5.26;93.44;98893.59;5054238;28;20438;-65
2021/03/14 02:54:07;;;;;;;0.40;0.30;;;;;;;5.24;93.52;98895.81;5054186;28;20446;-66
2021/03/14 02:56:33;;;;;;;0.73;0.40;;;;;;;5.19;93.45;98892.47;5054015;28;20860;-66
2021/03/14 02:59:02;;;;;;;0.80;0.40;;;;;;;5.17;94.04;98887.41;5054097;28;20438;-66
2021/03/14 03:01:30;;;;;;;0.40;0.30;;;;;;;5.10;95.89;98913.91;5053706;28;20954;-66
2021/03/14 03:03:58;;;;;;;0.60;0.43;;;;;;;5.07;96.28;98920.66;5053978;28;20867;-66
2021/03/14 03:06:24;;;;;;;0.40;0.30;;;;;;;5.04;97.78;98923.16;5053681;28;20481;-65
2021/03/14 03:08:51;;;;;;;0.40;0.30;;;;;;;4.94;98.08;98900.03;5053850;28;20465;-66
2021/03/14 03:11:18;;;;;;;0.40;0.30;;;;;;;4.91;98.95;98918.63;5053853;28;20438;-65
2021/03/14 03:13:44;;;;;;;0.40;0.40;;;;;;;4.87;100.00;98936.44;5053754;28;20480;-66
2021/03/14 03:16:13;;;;;;;0.80;0.77;;;;;;;4.83;100.00;98904.09;5053602;28;20490;-66
2021/03/14 03:18:41;;;;;;;0.40;0.30;;;;;;;4.83;100.00;98922.06;5053718;28;20611;-66
2021/03/14 03:21:08;;;;;;;0.40;0.27;;;;;;;4.83;100.00;98922.06;5053703;28;20442;-66
2021/03/14 03:23:35;;;;;;;0.50;0.30;;;;;;;4.81;100.00;98931.19;5053692;28;20438;-67
2021/03/14 03:26:01;;;;;;;7.90;0.90;;;;;;;4.79;100.00;98927.25;5053262;28;20950;-66
2021/03/14 03:28:28;;;;;;;0.60;0.40;;;;;;;4.76;100.00;98928.63;5053597;28;20867;-67
2021/03/14 03:30:54;;;;;;;0.40;0.40;;;;;;;4.79;100.00;98946.81;5053534;28;20452;-66
2021/03/14 03:33:20;;;;;;;0.40;0.30;;;;;;;4.74;100.00;98941.56;5053205;28;20944;-66
2021/03/14 03:35:47;;;;;;;0.40;0.30;;;;;;;4.74;100.00;98952.28;5053374;28;20485;-67
2021/03/14 03:38:13;;;;;;;0.40;0.30;;;;;;;4.65;100.00;98948.75;5053099;28;20963;-66
2021/03/14 03:40:39;;;;;;;0.40;0.30;;;;;;;4.65;100.00;98958.66;5053046;28;20453;-66
2021/03/14 03:43:15;;;;;;;0.40;0.30;;;;;;;4.63;100.00;98966.22;5052840;28;20446;-66
2021/03/14 03:45:43;;;;;;;0.40;0.30;;;;;;;4.59;100.00;98973.28;5053013;28;20460;-66
2021/03/14 03:48:15;;;;;;;0.40;0.30;;;;;;;4.54;100.00;98971.50;5053202;28;20477;-66
2021/03/14 03:50:42;;;;;;;0.40;0.30;;;;;;;4.53;100.00;98983.31;5053269;28;20438;-66
2021/03/14 03:53:11;;;;;;;0.40;0.30;;;;;;;4.52;100.00;98971.00;5053229;28;20438;-66
2021/03/14 03:55:37;;;;;;;0.40;0.30;;;;;;;4.53;100.00;98978.75;5053169;28;20810;-67
2021/03/14 03:58:05;;;;;;;0.40;0.30;;;;;;;4.53;100.00;98992.16;5053090;28;20462;-65
2021/03/14 04:00:31;;;;;;;0.40;0.30;;;;;;;4.51;100.00;98993.53;5052955;28;20430;-65
2021/03/14 04:02:59;;;;;;;0.40;0.30;;;;;;;4.45;100.00;98978.66;5053065;28;20453;-65
2021/03/14 04:05:26;;;;;;;1.07;0.43;;;;;;;4.47;100.00;99001.41;5053111;28;20447;-65
2021/03/14 04:07:54;;;;;;;0.40;0.30;;;;;;;4.47;100.00;99000.59;5052664;28;20476;-65
2021/03/14 04:10:22;;;;;;;0.40;0.30;;;;;;;4.47;100.00;99008.63;5053074;28;20500;-65
2021/03/14 04:12:51;;;;;;;0.40;0.30;;;;;;;4.43;100.00;99013.03;5052724;28;20438;-64
2021/03/14 04:15:25;;;;;;;0.40;0.30;;;;;;;4.42;100.00;99020.25;5052984;28;20438;-65
2021/03/14 04:17:52;;;;;;;0.47;0.33;;;;;;;4.39;100.00;99031.59;5052795;28;20854;-64
2021/03/14 04:20:21;;;;;;;0.40;0.30;;;;;;;4.35;100.00;99019.06;5052946;28;20446;-65
2021/03/14 04:22:51;;;;;;;0.40;0.30;;;;;;;4.35;100.00;99029.78;5052881;28;20461;-65
2021/03/14 04:25:19;;;;;;;0.40;0.30;;;;;;;4.34;100.00;99036.22;5052969;28;20451;-65
2021/03/14 04:27:48;;;;;;;0.50;0.40;;;;;;;4.28;100.00;99036.31;5052861;28;20462;-64
2021/03/14 04:30:16;;;;;;;0.40;0.30;;;;;;;4.28;100.00;99041.69;5052903;28;20435;-65
2021/03/14 04:32:42;;;;;;;0.60;0.40;;;;;;;4.27;100.00;99050.03;5053057;28;20498;-65
2021/03/14 04:35:10;;;;;;;0.40;0.30;;;;;;;4.23;100.00;99044.47;5053000;28;20452;-66
2021/03/14 04:37:39;;;;;;;0.40;0.30;;;;;;;4.21;100.00;99051.22;5052038;28;20844;-65
2021/03/14 04:40:07;;;;;;;0.40;0.27;;;;;;;4.22;100.00;99061.66;5052446;28;20439;-65
2021/03/14 04:42:34;;;;;;;0.60;0.60;;;;;;;4.18;100.00;99066.00;5052732;28;20453;-65
2021/03/14 04:45:02;;;;;;;0.40;0.30;;;;;;;4.20;100.00;99073.75;5052709;28;20450;-66
2021/03/14 04:47:28;;;;;;;0.40;0.30;;;;;;;4.20;100.00;99079.09;5052617;28;20450;-65
2021/03/14 04:49:54;;;;;;;0.40;0.30;;;;;;;4.20;100.00;99079.09;5052680;28;20438;-65
2021/03/14 04:52:21;;;;;;;0.40;0.30;;;;;;;4.14;100.00;99077.63;5052641;28;20438;-65
2021/03/14 04:54:49;;;;;;;0.40;0.30;;;;;;;4.15;100.00;99080.00;5054814;28;20441;-65
2021/03/14 04:57:16;;;;;;;0.40;0.30;;;;;;;4.18;100.00;99084.75;5056297;28;20494;-64
2021/03/14 04:59:44;;;;;;;0.40;0.30;;;;;;;4.20;100.00;99087.94;5056333;28;20438;-65
2021/03/14 05:02:12;;;;;;;0.40;0.30;;;;;;;4.17;100.00;99075.16;5056297;28;20511;-66
2021/03/14 05:04:40;;;;;;;0.40;0.30;;;;;;;4.19;100.00;99101.63;5056275;28;20450;-66
2021/03/14 05:07:08;;;;;;;0.40;0.30;;;;;;;4.18;100.00;99103.53;5080327;22;20489;-63
2021/03/14 05:09:36;;;;;;;0.40;0.30;;;;;;;4.12;100.00;99106.56;5056313;28;20556;-64
2021/03/14 05:12:02;;;;;;;0.40;0.30;;;;;;;4.15;100.00;99122.06;5056251;28;20504;-64
2021/03/14 05:14:29;;;;;;;0.87;0.37;;;;;;;4.15;100.00;99122.06;5056142;28;20507;-64
2021/03/14 05:16:55;;;;;;;0.40;0.30;;;;;;;4.15;100.00;99112.13;5056045;28;20489;-63
2021/03/14 05:19:22;;;;;;;0.40;0.30;;;;;;;4.17;100.00;99126.06;5056056;28;20442;-62
2021/03/14 05:21:48;;;;;;;0.40;0.30;;;;;;;4.14;100.00;99125.84;5055972;28;20533;-62
2021/03/14 05:24:14;;;;;;;1.37;0.73;;;;;;;4.11;100.00;99131.78;5055618;28;20466;-62
2021/03/14 05:26:41;;;;;;;0.40;0.30;;;;;;;4.10;100.00;99139.03;5055961;28;20495;-62
2021/03/14 05:29:10;;;;;;;0.40;0.20;;;;;;;4.11;100.00;99154.00;5055879;28;20453;-63
2021/03/14 05:31:37;;;;;;;0.40;0.33;;;;;;;4.11;100.00;99154.00;5055895;28;20442;-61
2021/03/14 05:34:05;;;;;;;0.40;0.30;;;;;;;4.08;100.00;99153.81;5055728;28;20445;-63
2021/03/14 05:36:32;;;;;;;0.40;0.30;;;;;;;4.06;100.00;99156.78;5055592;28;20851;-62
2021/03/14 05:39:00;;;;;;;0.40;0.30;;;;;;;4.07;100.00;99153.00;5055682;28;20430;-63
2021/03/14 05:41:27;;;;;;;0.40;0.30;;;;;;;4.10;100.00;99155.09;5055616;28;20443;-63
2021/03/14 05:43:53;;;;;;;0.60;0.40;;;;;;;4.12;100.00;99157.47;5056447;28;20446;-62
2021/03/14 05:46:20;;;;;;;0.40;0.30;;;;;;;4.10;100.00;99168.50;5056444;28;20439;-63
2021/03/14 05:48:46;;;;;;;0.40;0.30;;;;;;;4.12;100.00;99176.22;5056359;28;20454;-62
2021/03/14 05:51:20;;;;;;;0.40;0.30;;;;;;;4.10;100.00;99181.09;5056414;28;20445;-63
2021/03/14 05:53:51;;;;;;;2.60;0.80;;;;;;;4.12;100.00;99178.91;5056293;28;20462;-62
2021/03/14 05:56:17;;;;;;;0.40;0.30;;;;;;;4.15;100.00;99175.66;5055663;28;21041;-61
2021/03/14 05:58:45;;;;;;;0.50;0.40;;;;;;;4.12;100.00;99192.31;5055647;28;20508;-61
2021/03/14 06:01:16;;;;;;;0.40;0.30;;;;;;;4.09;100.00;99188.34;5055740;28;20442;-62
2021/03/14 06:03:42;;;;;;;0.40;0.30;;;;;;;4.13;100.00;99202.75;5055743;28;20443;-62
2021/03/14 06:06:09;;;;;;;0.40;0.30;;;;;;;4.16;100.00;99198.69;5054811;28;20496;-61
2021/03/14 06:08:35;;;;;;;0.40;0.30;;;;;;;4.18;100.00;99205.34;5054910;28;20523;-61
2021/03/14 06:11:04;;;;;;;0.40;0.30;;;;;;;4.23;100.00;99201.78;5055337;28;20809;-60
2021/03/14 06:13:30;;;;;;;0.40;0.30;;;;;;;4.24;100.00;99209.53;5055170;28;20442;-59
2021/03/14 06:15:56;;;;;;;0.40;0.30;;;;;;;4.22;100.00;99218.97;5054841;28;20449;-62
2021/03/14 06:18:22;;;;;;;0.40;0.30;;;;;;;4.25;100.00;99229.06;5054897;28;20828;-62
2021/03/14 06:20:49;;;;;;;0.73;0.50;;;;;;;4.29;100.00;99225.56;5054664;28;20936;-62
2021/03/14 06:23:16;;;;;;;0.40;0.30;;;;;;;4.33;100.00;99238.34;5054850;28;20445;-62
2021/03/14 06:25:43;;;;;;;0.70;0.50;;;;;;;4.34;100.00;99237.25;5054804;28;20446;-62
2021/03/14 06:28:10;;;;;;;0.40;0.30;;;;;;;4.30;100.00;99243.22;5054640;28;20469;-62
2021/03/14 06:30:37;;;;;;;0.40;0.30;;;;;;;4.35;100.00;99254.94;5054745;28;20446;-62
2021/03/14 06:33:07;;;;;;;1.07;0.97;;;;;;;4.37;100.00;99266.16;5054665;28;20495;-62
2021/03/14 06:35:45;;;;;;;0.70;0.50;;;;;;;4.39;100.00;99283.56;5054629;28;20418;-61
2021/03/14 06:38:23;;;;;;;0.50;0.37;;;;;;;4.39;100.00;99278.19;5054557;28;20576;-63
2021/03/14 06:40:51;;;;;;;0.57;0.53;;;;;;;4.37;100.00;99284.91;5054486;28;20579;-62
2021/03/14 06:43:18;;;;;;;0.40;0.30;;;;;;;4.43;100.00;99283.78;5054430;28;20451;-62
2021/03/14 06:45:44;;;;;;;0.40;0.30;;;;;;;4.47;100.00;99298.97;5054107;28;20438;-62
2021/03/14 06:48:11;;;;;;;0.40;0.30;;;;;;;4.50;100.00;99300.25;5054255;28;20523;-62
2021/03/14 06:50:40;;;;;;;0.40;0.30;;;;;;;4.49;100.00;99315.56;5054353;28;20453;-63
2021/03/14 06:53:08;;;;;;;0.40;0.30;;;;;;;4.46;100.00;99323.38;5054257;28;20469;-62
2021/03/14 06:55:34;;;;;;;0.40;0.40;;;;;;;4.52;100.00;99319.56;5054212;28;20442;-65
2021/03/14 06:58:20;;;;;;;0.40;0.30;;;;;;;4.58;100.00;99326.41;5054050;28;20497;-62
2021/03/14 07:01:18;;;;;;;0.50;0.30;;;;;;;4.60;100.00;99343.00;5053872;28;20912;-62
2021/03/14 07:03:47;;;;;;;0.40;0.30;;;;;;;4.62;100.00;99354.25;5054110;28;20446;-62
2021/03/14 07:06:17;;;;;;;0.40;0.30;;;;;;;4.60;100.00;99367.13;5053991;28;20536;-62
2021/03/14 07:08:44;;;;;;;0.83;0.57;;;;;;;4.61;100.00;99363.38;5053540;28;20853;-62
2021/03/14 07:11:10;;;;;;;0.40;0.30;;;;;;;4.60;100.00;99375.19;5053920;28;20442;-62
2021/03/14 07:13:39;;;;;;;0.40;0.30;;;;;;;4.59;100.00;99383.53;5053583;28;20955;-62
2021/03/14 07:16:05;;;;;;;0.40;0.30;;;;;;;4.60;100.00;99380.53;5053732;28;20450;-63
2021/03/14 07:18:33;;;;;;;0.40;0.30;;;;;;;4.57;100.00;99386.50;5052953;28;20466;-64
2021/03/14 07:20:59;;;;;;;0.40;0.30;;;;;;;4.56;100.00;99398.31;5053825;28;20434;-65
2021/03/14 07:23:32;;;;;;;0.40;0.30;;;;;;;4.53;100.00;99404.25;5053857;28;20446;-65
2021/03/14 07:25:58;;;;;;;0.40;0.30;;;;;;;4.54;100.00;99408.53;5053544;28;20442;-64
2021/03/14 07:28:24;;;;;;;0.47;0.37;;;;;;;4.54;100.00;99421.94;5053524;28;20462;-65
2021/03/14 07:30:52;;;;;;;0.50;0.40;;;;;;;4.59;100.00;99410.34;5053595;28;20472;-64
2021/03/14 07:33:19;;;;;;;0.40;0.30;;;;;;;4.58;100.00;99420.28;5053495;28;20438;-64
2021/03/14 07:35:45;;;;;;;0.40;0.30;;;;;;;4.59;100.00;99424.53;5054482;28;20449;-64
2021/03/14 07:38:13;;;;;;;0.40;0.30;;;;;;;4.61;100.00;99430.44;5053971;28;20497;-64
2021/03/14 07:40:39;;;;;;;0.40;0.30;;;;;;;4.66;100.00;99429.56;5053609;28;20442;-64
2021/03/14 07:43:05;;;;;;;0.40;0.40;;;;;;;4.70;100.00;99438.63;5053289;28;20948;-64
2021/03/14 07:45:32;;;;;;;0.40;0.27;;;;;;;4.71;100.00;99443.69;5053589;28;20501;-62
2021/03/14 07:48:01;;;;;;;0.40;0.30;;;;;;;4.77;100.00;99444.41;5053452;28;20811;-61
2021/03/14 07:50:28;;;;;;;0.50;0.40;;;;;;;4.83;100.00;99451.31;5053543;28;20442;-62
2021/03/14 07:53:01;;;;;;;0.40;0.30;;;;;;;4.87;100.00;99460.38;5053408;28;20450;-61
2021/03/14 07:55:27;;;;;;;0.40;0.30;;;;;;;4.92;100.00;99451.44;5053406;28;20426;-61
2021/03/14 07:57:53;;;;;;;0.47;0.33;;;;;;;4.94;100.00;99455.41;5053285;28;20561;-61
2021/03/14 08:00:27;;;;;;;0.73;0.67;;;;;;;4.97;100.00;99468.25;5053180;28;20430;-62
2021/03/14 08:02:54;;;;;;;0.80;0.80;;;;;;;5.03;100.00;99468.97;5053450;28;20824;-62
2021/03/14 08:05:45;;;;;;;0.40;0.30;;;;;;;5.09;100.00;99473.19;5054052;28;20449;-61
2021/03/14 08:08:11;;;;;;;0.40;0.30;;;;;;;5.09;100.00;99485.78;5053229;28;20562;-61
2021/03/14 08:10:40;;;;;;;0.40;0.30;;;;;;;5.14;100.00;99481.16;5053501;28;20495;-62
2021/03/14 08:13:08;;;;;;;0.43;0.33;;;;;;;5.21;100.00;99480.78;5053485;28;20438;-61
2021/03/14 08:15:35;;;;;;;0.40;0.30;;;;;;;5.27;100.00;99485.78;5053500;28;20439;-61
2021/03/14 08:18:03;;;;;;;3.40;0.60;;;;;;;5.30;100.00;99495.91;5053346;28;20482;-62
2021/03/14 08:20:38;;;;;;;0.40;0.30;;;;;;;5.34;100.00;99511.44;5053381;28;20812;-61
2021/03/14 08:23:05;;;;;;;0.40;0.30;;;;;;;5.34;100.00;99512.25;5053188;28;20446;-61
2021/03/14 08:25:37;;;;;;;0.40;0.30;;;;;;;5.38;100.00;99520.53;5053229;28;20537;-61
2021/03/14 08:28:25;;;;;;;0.50;0.30;;;;;;;5.39;98.76;99520.22;5053322;28;20481;-61
2021/03/14 08:30:52;;;;;;;0.40;0.30;;;;;;;5.41;98.88;99519.94;5057176;28;20517;-62
2021/03/14 08:33:43;;;;;;;0.40;0.23;;;;;;;5.40;99.11;99529.06;5057213;28;20442;-61
2021/03/14 08:36:12;;;;;;;0.40;0.30;;;;;;;5.39;99.32;99536.31;5047430;28;20453;-64
2021/03/14 08:38:47;;;;;;;0.40;0.30;;;;;;;5.41;99.87;99546.78;5056960;28;20515;-64
2021/03/14 08:41:24;;;;;;;0.50;0.43;;;;;;;5.34;100.00;99557.09;5057173;28;20438;-64
2021/03/14 08:43:54;;;;;;;0.40;0.30;;;;;;;5.28;100.00;99567.91;5057127;28;20445;-64
2021/03/14 08:46:20;;;;;;;0.40;0.20;;;;;;;5.20;100.00;99560.50;5056898;28;20438;-64
2021/03/14 08:48:47;;;;;;;0.40;0.33;;;;;;;5.11;100.00;99581.03;5056948;28;20465;-64
2021/03/14 08:51:13;;;;;;;0.40;0.30;;;;;;;4.98;100.00;99601.34;5057056;28;20442;-65
2021/03/14 08:53:40;;;;;;;0.93;0.40;;;;;;;4.77;100.00;99616.06;5057630;28;20450;-64
2021/03/14 08:56:09;;;;;;;0.40;0.30;;;;;;;4.69;100.00;99625.56;5057718;28;20442;-65
2021/03/14 08:58:36;;;;;;;0.40;0.30;;;;;;;4.60;100.00;99626.47;5056213;28;20509;-65
2021/03/14 09:01:07;;;;;;;0.40;0.30;;;;;;;4.47;100.00;99638.66;5056409;28;20442;-66
2021/03/14 09:03:40;;;;;;;0.40;0.30;;;;;;;4.40;100.00;99638.22;5056413;28;20422;-65
2021/03/14 09:06:26;;;;;;;0.87;0.70;;;;;;;4.41;100.00;99637.13;5056482;28;20449;-65
2021/03/14 09:09:00;;;;;;;0.40;0.30;;;;;;;4.37;100.00;99642.25;5056503;28;20881;-65
2021/03/14 09:11:40;;;;;;;0.40;0.33;;;;;;;4.37;100.00;99646.81;5056321;28;20471;-65
2021/03/14 09:14:39;;;;;;;0.40;0.30;;;;;;;4.29;100.00;99653.56;5056395;28;20446;-65
2021/03/14 09:17:10;;;;;;;0.40;0.30;;;;;;;4.30;100.00;99656.00;5012360;28;20833;-63
2021/03/14 09:19:38;;;;;;;0.40;0.30;;;;;;;4.39;100.00;99671.47;5056349;28;20437;-65
2021/03/14 09:22:08;;;;;;;0.40;0.30;;;;;;;4.41;100.00;99661.25;5056560;28;20445;-64
2021/03/14 09:24:37;;;;;;;0.60;0.60;;;;;;;4.46;100.00;99680.75;5056940;28;20468;-65
2021/03/14 09:27:06;;;;;;;3.13;0.70;;;;;;;4.47;100.00;99678.88;5056445;28;20458;-65
2021/03/14 09:29:46;;;;;;;0.97;0.77;;;;;;;4.53;100.00;99691.16;5056043;28;20963;-63
2021/03/14 09:32:17;;;;;;;0.40;0.20;;;;;;;4.59;100.00;99697.28;5056148;28;20454;-64
2021/03/14 09:34:43;;;;;;;0.40;0.30;;;;;;;4.71;100.00;99701.19;5055609;28;20982;-62
2021/03/14 09:37:11;;;;;;;0.40;0.27;;;;;;;4.83;100.00;99700.00;5055538;28;20482;-63
2021/03/14 09:39:37;;;;;;;0.40;0.30;;;;;;;4.98;100.00;99708.66;5055742;28;20469;-63
2021/03/14 09:42:04;;;;;;;1.53;0.60;;;;;;;5.14;100.00;99712.00;5054794;28;20449;-64
2021/03/14 09:44:30;;;;;;;0.40;0.30;;;;;;;5.26;100.00;99723.09;5055628;28;20430;-63
2021/03/14 09:46:58;;;;;;;0.60;0.60;;;;;;;5.39;100.00;99726.19;5055467;28;20516;-65
2021/03/14 09:49:24;;;;;;;0.40;0.30;;;;;;;5.54;100.00;99734.06;5055567;28;20438;-64
2021/03/14 09:51:54;;;;;;;0.40;0.30;;;;;;;5.56;100.00;99735.34;5055584;28;20441;-64
2021/03/14 09:54:22;;;;;;;0.40;0.40;;;;;;;5.57;100.00;99728.09;5055543;28;20433;-65
2021/03/14 09:56:53;;;;;;;0.70;0.57;;;;;;;5.46;100.00;99740.88;5055241;28;20482;-63
2021/03/14 09:59:21;;;;;;;0.50;0.40;;;;;;;5.43;100.00;99746.00;5055398;28;20438;-63
2021/03/14 10:01:48;;;;;;;0.70;0.60;;;;;;;5.38;100.00;99754.91;5055405;28;20441;-63
2021/03/14 10:04:14;;;;;;;0.57;0.50;;;;;;;5.37;100.00;99761.38;5055317;28;20464;-63
2021/03/14 10:06:40;;;;;;;0.40;0.20;;;;;;;5.41;100.00;99756.25;5054993;28;20929;-63
2021/03/14 10:09:06;;;;;;;0.40;0.30;;;;;;;5.48;100.00;99767.41;5054936;28;20904;-64
2021/03/14 10:11:33;;;;;;;0.40;0.30;;;;;;;5.52;100.00;99760.38;5055201;28;20445;-63
2021/03/14 10:13:59;;;;;;;0.40;0.30;;;;;;;5.57;100.00;99779.94;5054962;28;20449;-64
2021/03/14 10:16:26;;;;;;;0.43;0.33;;;;;;;5.50;100.00;99778.69;5055019;28;20458;-64
2021/03/14 10:18:58;;;;;;;0.83;0.83;;;;;;;5.52;100.00;99784.56;5055139;28;20477;-62
2021/03/14 10:21:26;;;;;;;0.40;0.30;;;;;;;5.55;100.00;99784.00;5055009;28;20465;-63
2021/03/14 10:23:53;;;;;;;0.73;0.70;;;;;;;5.54;100.00;99790.47;5055156;28;20477;-63
2021/03/14 10:26:20;;;;;;;0.40;0.20;;;;;;;5.62;100.00;99799.75;5054980;28;20442;-63
2021/03/14 10:28:47;;;;;;;0.40;0.30;;;;;;;5.59;100.00;99797.66;5054757;28;20454;-63
2021/03/14 10:31:15;;;;;;;1.03;0.93;;;;;;;5.54;100.00;99803.91;5054777;28;20446;-63
2021/03/14 10:33:42;;;;;;;1.20;0.80;;;;;;;5.58;100.00;99804.94;5055009;28;20446;-63
2021/03/14 10:36:10;;;;;;;0.40;0.30;;;;;;;5.67;100.00;99815.84;5054786;28;20434;-63
2021/03/14 10:38:41;;;;;;;0.40;0.30;;;;;;;5.76;100.00;99814.91;5054640;28;20471;-63
2021/03/14 10:41:09;;;;;;;2.10;1.47;;;;;;;5.82;100.00;99824.50;5054945;28;20438;-63
2021/03/14 10:43:44;;;;;;;0.40;0.30;;;;;;;5.87;100.00;99833.59;5054880;28;20480;-64
2021/03/14 10:46:11;;;;;;;0.47;0.47;;;;;;;5.87;100.00;99834.38;5054951;28;20429;-63
2021/03/14 10:48:37;;;;;;;0.40;0.30;;;;;;;5.96;100.00;99848.00;5054724;28;20458;-63
2021/03/14 10:51:06;;;;;;;0.40;0.30;;;;;;;6.00;100.00;99840.97;5054823;28;20453;-63
2021/03/14 10:53:32;;;;;;;0.40;0.27;;;;;;;6.02;100.00;99849.53;5054609;28;20500;-63
2021/03/14 10:56:02;;;;;;;0.67;0.67;;;;;;;6.13;100.00;99840.25;5054721;28;20453;-64
2021/03/14 10:58:35;;;;;;;0.60;0.40;;;;;;;6.18;99.82;99855.50;5054723;28;20493;-63
2021/03/14 11:01:02;;;;;;;0.40;0.30;;;;;;;6.22;99.42;99849.28;5054338;28;20916;-63
2021/03/14 11:03:32;;;;;;;0.40;0.33;;;;;;;6.36;100.00;99859.31;5054804;28;20446;-60
2021/03/14 11:06:15;;;;;;;0.50;0.33;;;;;;;6.50;100.00;99858.28;5054173;28;20816;-63
2021/03/14 11:09:04;;;;;;;8.63;1.27;;;;;;;6.52;97.41;99874.94;5053421;28;21054;-61
2021/03/14 11:11:38;;;;;;;0.40;0.40;;;;;;;6.61;97.38;99869.69;5049000;28;21034;-60
2021/03/14 11:14:26;;;;;;;0.40;0.30;;;;;;;6.62;94.96;99886.66;5054823;28;20437;-60
2021/03/14 11:17:10;;;;;;;1.20;0.80;;;;;;;6.72;95.23;99878.41;5041373;28;20489;-60
2021/03/14 11:19:38;;;;;;;0.60;0.40;;;;;;;6.88;94.62;99893.25;5054750;28;20435;-60
2021/03/14 11:22:05;;;;;;;0.57;0.33;;;;;;;7.13;94.24;99899.28;5054185;28;20446;-60
2021/03/14 11:24:31;;;;;;;0.50;0.40;;;;;;;7.34;94.54;99893.25;5053806;28;20804;-61
2021/03/14 11:26:58;;;;;;;0.40;0.30;;;;;;;7.42;90.01;99891.00;5054252;28;20458;-61
2021/03/14 11:29:23;;;;;;;1.90;0.60;;;;;;;7.39;86.91;99896.97;5054228;28;20512;-60
2021/03/14 11:31:50;;;;;;;2.10;0.87;;;;;;;7.39;85.75;99895.06;5054117;28;20948;-61
2021/03/14 11:34:15;;;;;;;0.60;0.47;;;;;;;7.50;86.65;99907.28;5054093;28;20499;-60
2021/03/14 11:36:42;;;;;;;0.70;0.70;;;;;;;7.63;87.72;99900.31;5053879;28;20486;-60
2021/03/14 11:39:08;;;;;;;0.50;0.50;;;;;;;7.72;87.59;99895.03;5053794;28;20469;-60
2021/03/14 11:41:35;;;;;;;0.83;0.70;;;;;;;7.87;85.07;99918.19;5053959;28;20442;-60